Etusivu
METAR-TAF:

METAR-TAF

Lentoasemat :

Tajima, Japani

Leveyspiiri: 35-31N, Pituuspiiri: 134-48E, korkeus merenpinnasta: 210 m

Tämänhetkinen sää

Tämä raportti tehtiin 10 tuntia ja 12 minuuttia sitten, kello 09.12 UTC
Tuuli 13 kn etelästä/lounaasta
Lämpötila 18°C
Kosteus 77%
Ilmanpaine 1010 hPa
Näkyvyys 10 km tai enemmän
Muutamia pilviä 1500 ft:n korkeudessa
Muutamia pilviä 2500 ft:n korkeudessa, Cumulonimbus.
Hajanaisia pilviä 3000 ft:n korkeudessa
Hajonneita pilviä 7000 ft:n korkeudessa
ukkosmyrsky, heikkoa sadetta

METAR: RJBT 160912Z 20013KT 9999 -TSRA FEW015 FEW025CB SCT030 BKN070 18/14 Q1010 RMK 1CU015 2CB025 3CU030 5AC070 A2984 FBL TS 20KM SW MOV E

Aika: 04:24 (19:24 UTC)


TAF: puuttuu

Säähavainnot ja -ennusteet yli 4000 lentoasemalta (METAR- ja TAF-raportit).

Käytössä olevat sääasemat on merkitty karttaan keltaisilla ja punaisilla pisteillä.

Aseta hiiri pisteen päälle nähdäksesi sääaseman nimen.

Klikkaa sitten nähdäksesi säähavainnot ja -ennusteet.

Kartan vaihtaminen: klikkaa mustalla rastilla varustettuja vihreitä pisteitä, niin voit zoomata sisään; viivalla varustettua vihreää pistettä, niin voit zoomata ulos tai vihreitä nuolia, niin pääset viereisille kartoille.


METAR-TAF: